createdAt,value
2019-01-06T00:05:40.177Z,12.33
2019-01-06T00:12:10.652Z,12.77
2019-01-06T00:18:41.222Z,13.20
2019-01-06T00:25:16.197Z,11.97
2019-01-06T00:31:33.064Z,11.60
2019-01-06T00:37:56.760Z,12.60
2019-01-06T00:44:27.418Z,13.60
2019-01-06T00:50:50.823Z,14.20
2019-01-06T00:57:31.198Z,14.97
2019-01-06T01:04:05.545Z,14.00
2019-01-06T01:10:27.031Z,12.93
2019-01-06T01:16:55.470Z,14.97
2019-01-06T01:23:18.827Z,14.30
2019-01-06T01:29:42.325Z,15.17
2019-01-06T01:36:07.614Z,15.13
2019-01-06T01:42:30.021Z,14.10
2019-01-06T01:49:12.918Z,15.30
2019-01-06T01:55:43.381Z,12.87
2019-01-06T02:02:14.245Z,12.93
2019-01-06T02:08:31.692Z,12.43
2019-01-06T02:14:56.371Z,12.20
2019-01-06T02:21:33.401Z,13.83
2019-01-06T02:27:58.366Z,12.80
2019-01-06T02:34:25.799Z,14.90
2019-01-06T02:40:53.730Z,14.13
2019-01-06T02:47:15.675Z,14.30
2019-01-06T02:53:43.141Z,15.83
2019-01-06T03:00:23.228Z,13.50
2019-01-06T03:06:46.828Z,13.67
2019-01-06T03:13:10.857Z,14.10
2019-01-06T03:19:36.098Z,14.90
2019-01-06T03:26:03.461Z,14.47
2019-01-06T03:32:40.387Z,14.50
2019-01-06T03:39:03.608Z,15.37
2019-01-06T03:45:31.081Z,15.40
2019-01-06T03:51:55.762Z,13.37
2019-01-06T03:58:12.694Z,13.27
2019-01-06T04:04:37.636Z,12.13
2019-01-06T04:11:01.183Z,11.47
2019-01-06T04:17:25.759Z,13.23
2019-01-06T04:23:59.258Z,13.47
2019-01-06T04:30:42.418Z,12.13
2019-01-06T04:37:02.429Z,13.43
2019-01-06T04:43:40.121Z,11.57
2019-01-06T04:50:07.550Z,12.13
2019-01-06T04:56:31.281Z,11.30
2019-01-06T05:02:55.827Z,11.83
2019-01-06T05:09:19.548Z,10.20
2019-01-06T05:15:41.183Z,12.33
2019-01-06T05:22:20.883Z,13.10
2019-01-06T05:29:01.102Z,15.10
2019-01-06T05:35:24.651Z,15.20
2019-01-06T05:41:48.418Z,15.20
2019-01-06T05:48:04.082Z,15.77
2019-01-06T05:54:29.030Z,16.33
2019-01-06T06:01:09.452Z,15.67
2019-01-06T06:07:43.091Z,15.17
2019-01-06T06:14:06.990Z,14.40
2019-01-06T06:20:46.706Z,16.80
2019-01-06T06:27:10.451Z,16.00
2019-01-06T06:33:38.001Z,16.33
2019-01-06T06:40:08.830Z,16.60
2019-01-06T06:46:36.653Z,15.03
2019-01-06T06:53:16.460Z,16.13
2019-01-06T06:59:50.109Z,17.17
2019-01-06T07:06:11.202Z,16.47
2019-01-06T07:12:43.042Z,15.60
2019-01-06T07:19:06.493Z,15.27
2019-01-06T07:25:32.366Z,15.63
2019-01-06T07:32:06.512Z,16.67
2019-01-06T07:38:30.715Z,16.63
2019-01-06T07:45:04.542Z,16.37
2019-01-06T07:51:27.871Z,16.07
2019-01-06T07:58:01.489Z,17.43
2019-01-06T08:04:26.221Z,18.00
2019-01-06T08:10:56.841Z,15.67
2019-01-06T08:17:21.426Z,17.70
2019-01-06T08:24:01.423Z,18.63
2019-01-06T08:30:29.808Z,15.20
2019-01-06T08:36:53.508Z,16.93
2019-01-06T08:43:33.331Z,16.67
2019-01-06T08:50:01.326Z,17.63
2019-01-06T08:56:37.395Z,17.27
2019-01-06T09:03:14.321Z,17.73
2019-01-06T09:09:45.956Z,19.03
2019-01-06T09:16:09.473Z,20.23
2019-01-06T09:22:32.781Z,17.80
2019-01-06T09:29:03.694Z,16.13
2019-01-06T09:35:28.912Z,17.27
2019-01-06T09:41:52.484Z,17.30
2019-01-06T09:48:26.026Z,17.27
2019-01-06T09:54:48.526Z,16.30
2019-01-06T10:01:13.100Z,15.50
2019-01-06T10:07:33.639Z,16.00
2019-01-06T10:14:10.691Z,15.20
2019-01-06T10:20:45.338Z,14.13
2019-01-06T10:27:15.876Z,14.33
2019-01-06T10:33:39.594Z,16.07
2019-01-06T10:40:10.434Z,13.57
2019-01-06T10:46:53.257Z,12.53
2019-01-06T10:53:25.184Z,13.43
2019-01-06T10:59:52.886Z,13.07
2019-01-06T11:06:16.957Z,13.30
2019-01-06T11:12:56.052Z,12.83
2019-01-06T11:19:33.038Z,12.80
2019-01-06T11:25:48.711Z,10.80
2019-01-06T11:32:12.330Z,12.07
2019-01-06T11:38:43.139Z,11.57
2019-01-06T11:45:10.731Z,11.77
2019-01-06T11:51:41.399Z,11.20
2019-01-06T11:58:15.173Z,9.77
2019-01-06T12:04:58.364Z,11.43
2019-01-06T12:11:41.629Z,12.63
2019-01-06T12:18:04.920Z,11.97
2019-01-06T12:24:41.640Z,11.53
2019-01-06T12:31:09.308Z,10.60
2019-01-06T12:37:34.166Z,8.97
2019-01-06T12:43:58.926Z,8.73
2019-01-06T12:50:27.079Z,9.87
2019-01-06T12:56:50.319Z,12.00
2019-01-06T13:03:13.638Z,10.33
2019-01-06T13:09:50.570Z,17.67
2019-01-06T13:16:24.650Z,14.57
2019-01-06T13:22:57.786Z,14.13
2019-01-06T13:29:22.637Z,11.73
2019-01-06T13:35:50.338Z,11.83
2019-01-06T13:42:13.742Z,8.77
2019-01-06T13:48:37.169Z,10.13
2019-01-06T13:55:01.842Z,8.63
2019-01-06T14:01:32.637Z,8.90
2019-01-06T14:07:55.956Z,9.40
2019-01-06T14:14:19.771Z,8.70
2019-01-06T14:20:43.812Z,8.40
2019-01-06T14:27:07.424Z,8.30
2019-01-06T14:33:43.707Z,9.20
2019-01-06T14:40:08.248Z,9.07
2019-01-06T14:46:31.665Z,8.27
2019-01-06T14:53:10.128Z,9.47
2019-01-06T14:59:37.666Z,7.63
2019-01-06T15:06:02.615Z,5.57
2019-01-06T15:12:36.296Z,6.30
2019-01-06T15:18:58.982Z,6.97
2019-01-06T15:25:42.437Z,5.07
2019-01-06T15:32:22.571Z,5.40
2019-01-06T15:38:53.529Z,5.40
2019-01-06T15:45:22.766Z,5.53
2019-01-06T15:51:59.374Z,6.43
2019-01-06T15:58:22.639Z,6.80
2019-01-06T16:04:56.358Z,6.73
2019-01-06T16:11:27.233Z,7.00
2019-01-06T16:17:57.562Z,6.93
2019-01-06T16:24:20.602Z,8.33
2019-01-06T16:30:41.515Z,11.10
2019-01-06T16:37:18.725Z,10.43
2019-01-06T16:43:41.705Z,16.83
2019-01-06T16:50:21.595Z,9.17
2019-01-06T16:57:06.776Z,10.03
2019-01-06T17:03:47.255Z,11.20
2019-01-06T17:10:10.865Z,11.20
2019-01-06T17:16:50.960Z,12.03
2019-01-06T17:23:14.159Z,12.37
2019-01-06T17:29:50.954Z,12.17
2019-01-06T17:36:14.598Z,13.33
2019-01-06T17:42:38.602Z,15.00
2019-01-06T17:49:02.263Z,17.93
2019-01-06T17:55:27.134Z,15.33
2019-01-06T18:02:04.389Z,18.17
2019-01-06T18:08:28.051Z,15.83
2019-01-06T18:14:54.991Z,20.90
2019-01-06T18:21:18.753Z,15.70
2019-01-06T18:27:43.914Z,17.33
2019-01-06T18:34:17.558Z,19.40
2019-01-06T18:40:41.845Z,18.60
2019-01-06T18:47:12.651Z,18.13
2019-01-06T18:53:43.648Z,17.80
2019-01-06T19:00:17.659Z,19.00
2019-01-06T19:06:40.831Z,19.33
2019-01-06T19:13:04.524Z,18.87
2019-01-06T19:19:42.482Z,17.87
2019-01-06T19:26:05.461Z,19.03
2019-01-06T19:32:40.546Z,20.07
2019-01-06T19:39:04.053Z,20.47
2019-01-06T19:45:40.890Z,19.50
2019-01-06T19:52:17.644Z,21.00
2019-01-06T19:58:40.468Z,20.43
2019-01-06T20:04:57.989Z,21.63
2019-01-06T20:11:22.648Z,21.80
2019-01-06T20:17:46.100Z,22.03
2019-01-06T20:24:25.909Z,21.83
2019-01-06T20:30:49.231Z,23.00
2019-01-06T20:37:16.918Z,21.53
2019-01-06T20:43:41.533Z,22.67
2019-01-06T20:50:03.169Z,22.00
2019-01-06T20:56:33.113Z,23.63
2019-01-06T21:03:00.928Z,23.13
2019-01-06T21:09:26.527Z,21.90
2019-01-06T21:15:54.520Z,22.83
2019-01-06T21:22:37.609Z,21.80
2019-01-06T21:29:00.301Z,20.70
2019-01-06T21:35:24.086Z,21.77
2019-01-06T21:41:58.479Z,22.23
2019-01-06T21:48:29.584Z,23.00
2019-01-06T21:54:52.804Z,22.53
2019-01-06T22:01:16.115Z,21.67
2019-01-06T22:07:39.425Z,22.97
2019-01-06T22:14:13.451Z,23.60
2019-01-06T22:20:50.239Z,24.37
2019-01-06T22:27:33.325Z,27.30
2019-01-06T22:33:57.992Z,24.73
2019-01-06T22:40:28.069Z,24.37
2019-01-06T22:46:58.760Z,23.90
2019-01-06T22:53:22.177Z,22.60
2019-01-06T22:59:56.017Z,23.43
2019-01-06T23:06:15.548Z,23.80
2019-01-06T23:12:37.169Z,24.17
2019-01-06T23:19:17.833Z,23.63
2019-01-06T23:25:41.289Z,25.10
2019-01-06T23:32:06.142Z,23.77
2019-01-06T23:38:43.120Z,24.47
2019-01-06T23:45:07.744Z,25.50
2019-01-06T23:51:41.999Z,24.43
2019-01-06T23:58:05.610Z,26.10
